sensor_id;sensor_type;location;lat;lon;timestamp;P1;durP1;ratioP1;P2;durP2;ratioP2
13969;SDS011;7057;49.984;8.404;2024-02-15T00:01:15;13.40;;;10.97;;
13969;SDS011;7057;49.984;8.404;2024-02-15T00:03:43;16.57;;;12.03;;
13969;SDS011;7057;49.984;8.404;2024-02-15T00:06:10;17.40;;;12.73;;
13969;SDS011;7057;49.984;8.404;2024-02-15T00:08:37;17.83;;;13.57;;
13969;SDS011;7057;49.984;8.404;2024-02-15T00:11:06;14.97;;;12.70;;
13969;SDS011;7057;49.984;8.404;2024-02-15T00:13:36;17.47;;;13.03;;
13969;SDS011;7057;49.984;8.404;2024-02-15T00:16:03;17.47;;;13.80;;
13969;SDS011;7057;49.984;8.404;2024-02-15T00:18:31;14.83;;;13.37;;
13969;SDS011;7057;49.984;8.404;2024-02-15T00:20:59;14.83;;;12.40;;
13969;SDS011;7057;49.984;8.404;2024-02-15T00:23:27;17.27;;;13.30;;
13969;SDS011;7057;49.984;8.404;2024-02-15T00:25:54;16.50;;;12.63;;
13969;SDS011;7057;49.984;8.404;2024-02-15T00:28:22;13.60;;;10.93;;
13969;SDS011;7057;49.984;8.404;2024-02-15T00:30:53;13.67;;;12.27;;
13969;SDS011;7057;49.984;8.404;2024-02-15T00:33:20;16.67;;;12.67;;
13969;SDS011;7057;49.984;8.404;2024-02-15T00:35:48;18.83;;;13.33;;
13969;SDS011;7057;49.984;8.404;2024-02-15T00:38:17;16.83;;;12.67;;
13969;SDS011;7057;49.984;8.404;2024-02-15T00:40:45;14.83;;;11.50;;
13969;SDS011;7057;49.984;8.404;2024-02-15T00:43:12;15.13;;;12.53;;
13969;SDS011;7057;49.984;8.404;2024-02-15T00:45:40;18.43;;;13.30;;
13969;SDS011;7057;49.984;8.404;2024-02-15T00:48:09;15.67;;;13.50;;
13969;SDS011;7057;49.984;8.404;2024-02-15T00:50:36;15.13;;;13.53;;
13969;SDS011;7057;49.984;8.404;2024-02-15T00:53:04;15.37;;;13.63;;
13969;SDS011;7057;49.984;8.404;2024-02-15T00:55:32;20.00;;;14.27;;
13969;SDS011;7057;49.984;8.404;2024-02-15T00:57:59;16.43;;;14.33;;
13969;SDS011;7057;49.984;8.404;2024-02-15T01:00:27;16.97;;;13.33;;
13969;SDS011;7057;49.984;8.404;2024-02-15T01:02:55;15.47;;;13.57;;
13969;SDS011;7057;49.984;8.404;2024-02-15T01:05:24;15.37;;;12.27;;
13969;SDS011;7057;49.984;8.404;2024-02-15T01:07:52;14.30;;;12.03;;
13969;SDS011;7057;49.984;8.404;2024-02-15T01:10:21;14.03;;;12.53;;
13969;SDS011;7057;49.984;8.404;2024-02-15T01:12:49;14.97;;;12.70;;
13969;SDS011;7057;49.984;8.404;2024-02-15T01:15:16;16.07;;;13.30;;
13969;SDS011;7057;49.984;8.404;2024-02-15T01:17:45;17.17;;;13.77;;
13969;SDS011;7057;49.984;8.404;2024-02-15T01:20:12;15.33;;;13.60;;
13969;SDS011;7057;49.984;8.404;2024-02-15T01:22:42;16.37;;;14.47;;
13969;SDS011;7057;49.984;8.404;2024-02-15T01:25:10;16.47;;;13.90;;
13969;SDS011;7057;49.984;8.404;2024-02-15T01:27:38;16.70;;;14.07;;
13969;SDS011;7057;49.984;8.404;2024-02-15T01:30:06;16.47;;;14.73;;
13969;SDS011;7057;49.984;8.404;2024-02-15T01:32:33;19.07;;;14.83;;
13969;SDS011;7057;49.984;8.404;2024-02-15T01:35:02;16.20;;;13.70;;
13969;SDS011;7057;49.984;8.404;2024-02-15T01:37:29;21.77;;;14.57;;
13969;SDS011;7057;49.984;8.404;2024-02-15T01:39:58;17.20;;;14.10;;
13969;SDS011;7057;49.984;8.404;2024-02-15T01:42:26;18.57;;;14.37;;
13969;SDS011;7057;49.984;8.404;2024-02-15T01:44:53;19.00;;;15.27;;
13969;SDS011;7057;49.984;8.404;2024-02-15T01:47:21;20.10;;;14.13;;
13969;SDS011;7057;49.984;8.404;2024-02-15T01:49:48;19.90;;;15.87;;
13969;SDS011;7057;49.984;8.404;2024-02-15T01:52:16;19.37;;;15.13;;
13969;SDS011;7057;49.984;8.404;2024-02-15T01:54:44;16.07;;;14.07;;
13969;SDS011;7057;49.984;8.404;2024-02-15T01:57:13;18.13;;;14.30;;
13969;SDS011;7057;49.984;8.404;2024-02-15T01:59:39;16.43;;;13.93;;
13969;SDS011;7057;49.984;8.404;2024-02-15T02:02:08;16.97;;;14.20;;
13969;SDS011;7057;49.984;8.404;2024-02-15T02:04:37;17.30;;;13.00;;
13969;SDS011;7057;49.984;8.404;2024-02-15T02:07:04;18.97;;;14.23;;
13969;SDS011;7057;49.984;8.404;2024-02-15T02:09:32;21.03;;;14.20;;
13969;SDS011;7057;49.984;8.404;2024-02-15T02:11:59;15.13;;;13.53;;
13969;SDS011;7057;49.984;8.404;2024-02-15T02:14:28;15.47;;;12.93;;
13969;SDS011;7057;49.984;8.404;2024-02-15T02:17:01;15.60;;;13.93;;
13969;SDS011;7057;49.984;8.404;2024-02-15T02:19:37;13.90;;;12.07;;
13969;SDS011;7057;49.984;8.404;2024-02-15T02:22:04;12.57;;;11.37;;
13969;SDS011;7057;49.984;8.404;2024-02-15T02:24:36;12.47;;;11.00;;
13969;SDS011;7057;49.984;8.404;2024-02-15T02:27:07;17.13;;;11.27;;
13969;SDS011;7057;49.984;8.404;2024-02-15T02:29:35;13.30;;;9.43;;
13969;SDS011;7057;49.984;8.404;2024-02-15T02:32:03;13.97;;;10.20;;
13969;SDS011;7057;49.984;8.404;2024-02-15T02:34:31;12.97;;;10.13;;
13969;SDS011;7057;49.984;8.404;2024-02-15T02:36:58;11.43;;;9.53;;
13969;SDS011;7057;49.984;8.404;2024-02-15T02:39:27;13.03;;;10.27;;
13969;SDS011;7057;49.984;8.404;2024-02-15T02:41:57;13.60;;;9.77;;
13969;SDS011;7057;49.984;8.404;2024-02-15T02:44:25;14.17;;;10.23;;
13969;SDS011;7057;49.984;8.404;2024-02-15T02:46:53;12.30;;;9.20;;
13969;SDS011;7057;49.984;8.404;2024-02-15T02:49:20;11.63;;;8.70;;
13969;SDS011;7057;49.984;8.404;2024-02-15T02:51:48;11.47;;;9.37;;
13969;SDS011;7057;49.984;8.404;2024-02-15T02:54:15;10.03;;;8.93;;
13969;SDS011;7057;49.984;8.404;2024-02-15T02:56:43;11.77;;;8.87;;
13969;SDS011;7057;49.984;8.404;2024-02-15T02:59:10;13.83;;;8.93;;
13969;SDS011;7057;49.984;8.404;2024-02-15T03:01:39;10.03;;;9.00;;
13969;SDS011;7057;49.984;8.404;2024-02-15T03:04:07;15.03;;;9.60;;
13969;SDS011;7057;49.984;8.404;2024-02-15T03:06:37;11.17;;;9.93;;
13969;SDS011;7057;49.984;8.404;2024-02-15T03:09:07;12.23;;;9.70;;
13969;SDS011;7057;49.984;8.404;2024-02-15T03:11:35;10.23;;;8.93;;
13969;SDS011;7057;49.984;8.404;2024-02-15T03:14:03;13.03;;;10.43;;
13969;SDS011;7057;49.984;8.404;2024-02-15T03:16:31;15.17;;;9.60;;
13969;SDS011;7057;49.984;8.404;2024-02-15T03:19:00;12.97;;;9.50;;
13969;SDS011;7057;49.984;8.404;2024-02-15T03:21:28;11.30;;;8.97;;
13969;SDS011;7057;49.984;8.404;2024-02-15T03:23:56;13.97;;;10.27;;
13969;SDS011;7057;49.984;8.404;2024-02-15T03:26:29;15.73;;;10.40;;
13969;SDS011;7057;49.984;8.404;2024-02-15T03:29:03;12.60;;;9.87;;
13969;SDS011;7057;49.984;8.404;2024-02-15T03:31:31;14.80;;;10.57;;
13969;SDS011;7057;49.984;8.404;2024-02-15T03:34:01;11.77;;;9.70;;
13969;SDS011;7057;49.984;8.404;2024-02-15T03:36:29;13.50;;;10.67;;
13969;SDS011;7057;49.984;8.404;2024-02-15T03:38:56;14.77;;;10.37;;
13969;SDS011;7057;49.984;8.404;2024-02-15T03:41:26;16.67;;;10.97;;
13969;SDS011;7057;49.984;8.404;2024-02-15T03:43:56;13.70;;;10.03;;
13969;SDS011;7057;49.984;8.404;2024-02-15T03:46:24;13.60;;;11.07;;
13969;SDS011;7057;49.984;8.404;2024-02-15T03:48:53;13.17;;;10.67;;
13969;SDS011;7057;49.984;8.404;2024-02-15T03:51:23;11.10;;;9.87;;
13969;SDS011;7057;49.984;8.404;2024-02-15T03:53:51;14.20;;;10.77;;
13969;SDS011;7057;49.984;8.404;2024-02-15T03:56:18;12.93;;;10.50;;
13969;SDS011;7057;49.984;8.404;2024-02-15T03:58:46;14.83;;;9.73;;
13969;SDS011;7057;49.984;8.404;2024-02-15T04:01:15;12.23;;;9.57;;
13969;SDS011;7057;49.984;8.404;2024-02-15T04:03:43;13.77;;;9.97;;
13969;SDS011;7057;49.984;8.404;2024-02-15T04:06:10;12.80;;;9.73;;
13969;SDS011;7057;49.984;8.404;2024-02-15T04:08:40;11.47;;;10.03;;
13969;SDS011;7057;49.984;8.404;2024-02-15T04:11:07;13.67;;;10.30;;
13969;SDS011;7057;49.984;8.404;2024-02-15T04:13:35;13.20;;;11.27;;
13969;SDS011;7057;49.984;8.404;2024-02-15T04:16:03;16.20;;;10.57;;
13969;SDS011;7057;49.984;8.404;2024-02-15T04:18:30;12.43;;;10.40;;
13969;SDS011;7057;49.984;8.404;2024-02-15T04:20:58;12.17;;;9.53;;
13969;SDS011;7057;49.984;8.404;2024-02-15T04:23:25;10.77;;;9.27;;
13969;SDS011;7057;49.984;8.404;2024-02-15T04:25:54;12.97;;;9.60;;
13969;SDS011;7057;49.984;8.404;2024-02-15T04:28:22;12.30;;;9.67;;
13969;SDS011;7057;49.984;8.404;2024-02-15T04:30:50;12.93;;;10.33;;
13969;SDS011;7057;49.984;8.404;2024-02-15T04:33:18;11.70;;;9.67;;
13969;SDS011;7057;49.984;8.404;2024-02-15T04:35:45;14.83;;;10.27;;
13969;SDS011;7057;49.984;8.404;2024-02-15T04:38:15;12.10;;;9.50;;
13969;SDS011;7057;49.984;8.404;2024-02-15T04:40:44;12.37;;;9.37;;
13969;SDS011;7057;49.984;8.404;2024-02-15T04:43:14;12.50;;;9.47;;
13969;SDS011;7057;49.984;8.404;2024-02-15T04:45:41;14.37;;;9.47;;
13969;SDS011;7057;49.984;8.404;2024-02-15T04:48:09;11.00;;;9.17;;
13969;SDS011;7057;49.984;8.404;2024-02-15T04:50:39;10.20;;;8.93;;
13969;SDS011;7057;49.984;8.404;2024-02-15T04:53:08;13.00;;;9.33;;
13969;SDS011;7057;49.984;8.404;2024-02-15T04:55:36;11.17;;;9.37;;
13969;SDS011;7057;49.984;8.404;2024-02-15T04:58:03;11.70;;;9.13;;
13969;SDS011;7057;49.984;8.404;2024-02-15T05:00:32;13.70;;;9.93;;
13969;SDS011;7057;49.984;8.404;2024-02-15T05:03:01;11.80;;;9.23;;
13969;SDS011;7057;49.984;8.404;2024-02-15T05:05:29;13.73;;;8.70;;
13969;SDS011;7057;49.984;8.404;2024-02-15T05:07:57;14.63;;;9.63;;
13969;SDS011;7057;49.984;8.404;2024-02-15T05:10:26;11.30;;;8.93;;
13969;SDS011;7057;49.984;8.404;2024-02-15T05:12:54;9.93;;;9.03;;
13969;SDS011;7057;49.984;8.404;2024-02-15T05:15:21;14.50;;;8.60;;
13969;SDS011;7057;49.984;8.404;2024-02-15T05:17:51;10.37;;;8.37;;
13969;SDS011;7057;49.984;8.404;2024-02-15T05:20:19;11.13;;;8.27;;
13969;SDS011;7057;49.984;8.404;2024-02-15T05:22:47;13.67;;;8.77;;
13969;SDS011;7057;49.984;8.404;2024-02-15T05:25:15;10.33;;;8.40;;
13969;SDS011;7057;49.984;8.404;2024-02-15T05:27:47;11.70;;;8.60;;
13969;SDS011;7057;49.984;8.404;2024-02-15T05:30:15;14.73;;;9.60;;
13969;SDS011;7057;49.984;8.404;2024-02-15T05:32:42;13.40;;;9.37;;
13969;SDS011;7057;49.984;8.404;2024-02-15T05:35:12;15.07;;;9.90;;
13969;SDS011;7057;49.984;8.404;2024-02-15T05:37:40;12.10;;;9.33;;
13969;SDS011;7057;49.984;8.404;2024-02-15T05:40:08;12.00;;;8.90;;
13969;SDS011;7057;49.984;8.404;2024-02-15T05:42:41;14.87;;;9.40;;
13969;SDS011;7057;49.984;8.404;2024-02-15T05:45:29;18.77;;;11.60;;
13969;SDS011;7057;49.984;8.404;2024-02-15T05:47:59;12.27;;;10.63;;
13969;SDS011;7057;49.984;8.404;2024-02-15T05:50:28;11.93;;;10.30;;
13969;SDS011;7057;49.984;8.404;2024-02-15T05:52:56;11.33;;;9.90;;
13969;SDS011;7057;49.984;8.404;2024-02-15T05:55:24;13.47;;;10.00;;
13969;SDS011;7057;49.984;8.404;2024-02-15T05:57:54;11.10;;;8.67;;
13969;SDS011;7057;49.984;8.404;2024-02-15T06:00:22;12.13;;;9.30;;
13969;SDS011;7057;49.984;8.404;2024-02-15T06:02:50;9.47;;;8.57;;
13969;SDS011;7057;49.984;8.404;2024-02-15T06:05:18;10.30;;;8.77;;
13969;SDS011;7057;49.984;8.404;2024-02-15T06:07:47;12.80;;;9.30;;
13969;SDS011;7057;49.984;8.404;2024-02-15T06:10:14;12.37;;;9.57;;
13969;SDS011;7057;49.984;8.404;2024-02-15T06:12:43;10.87;;;9.13;;
13969;SDS011;7057;49.984;8.404;2024-02-15T06:15:10;12.63;;;9.70;;
13969;SDS011;7057;49.984;8.404;2024-02-15T06:17:41;14.43;;;10.53;;
13969;SDS011;7057;49.984;8.404;2024-02-15T06:20:11;16.50;;;11.40;;
13969;SDS011;7057;49.984;8.404;2024-02-15T06:22:40;12.70;;;10.30;;
13969;SDS011;7057;49.984;8.404;2024-02-15T06:25:09;16.43;;;10.30;;
13969;SDS011;7057;49.984;8.404;2024-02-15T06:27:36;12.83;;;9.70;;
13969;SDS011;7057;49.984;8.404;2024-02-15T06:30:06;12.50;;;9.70;;
13969;SDS011;7057;49.984;8.404;2024-02-15T06:32:52;11.60;;;8.80;;
13969;SDS011;7057;49.984;8.404;2024-02-15T06:35:37;12.57;;;8.97;;
13969;SDS011;7057;49.984;8.404;2024-02-15T06:38:22;11.57;;;8.90;;
13969;SDS011;7057;49.984;8.404;2024-02-15T06:41:09;11.53;;;9.23;;
13969;SDS011;7057;49.984;8.404;2024-02-15T06:43:36;11.70;;;8.90;;
13969;SDS011;7057;49.984;8.404;2024-02-15T06:46:05;10.23;;;9.00;;
13969;SDS011;7057;49.984;8.404;2024-02-15T06:48:34;12.67;;;9.70;;
13969;SDS011;7057;49.984;8.404;2024-02-15T06:51:02;14.87;;;9.47;;
13969;SDS011;7057;49.984;8.404;2024-02-15T06:53:30;13.20;;;9.50;;
13969;SDS011;7057;49.984;8.404;2024-02-15T06:55:58;16.03;;;9.20;;
13969;SDS011;7057;49.984;8.404;2024-02-15T06:58:27;14.23;;;9.27;;
13969;SDS011;7057;49.984;8.404;2024-02-15T07:00:54;10.73;;;8.90;;
13969;SDS011;7057;49.984;8.404;2024-02-15T07:03:22;14.27;;;10.47;;
13969;SDS011;7057;49.984;8.404;2024-02-15T07:05:49;12.67;;;9.60;;
13969;SDS011;7057;49.984;8.404;2024-02-15T07:08:17;10.37;;;9.27;;
13969;SDS011;7057;49.984;8.404;2024-02-15T07:10:44;11.87;;;9.00;;
13969;SDS011;7057;49.984;8.404;2024-02-15T07:13:12;12.47;;;9.63;;
13969;SDS011;7057;49.984;8.404;2024-02-15T07:15:41;10.50;;;8.77;;
13969;SDS011;7057;49.984;8.404;2024-02-15T07:18:09;12.37;;;8.37;;
13969;SDS011;7057;49.984;8.404;2024-02-15T07:20:37;13.67;;;9.10;;
13969;SDS011;7057;49.984;8.404;2024-02-15T07:23:05;12.63;;;8.10;;
13969;SDS011;7057;49.984;8.404;2024-02-15T07:25:32;13.97;;;8.20;;
13969;SDS011;7057;49.984;8.404;2024-02-15T07:28:00;11.70;;;8.17;;
13969;SDS011;7057;49.984;8.404;2024-02-15T07:30:28;11.60;;;8.43;;
13969;SDS011;7057;49.984;8.404;2024-02-15T07:32:58;12.80;;;7.50;;
13969;SDS011;7057;49.984;8.404;2024-02-15T07:35:25;9.53;;;7.17;;
13969;SDS011;7057;49.984;8.404;2024-02-15T07:37:54;8.47;;;7.23;;
13969;SDS011;7057;49.984;8.404;2024-02-15T07:40:24;8.43;;;6.57;;
13969;SDS011;7057;49.984;8.404;2024-02-15T07:42:54;10.33;;;6.70;;
13969;SDS011;7057;49.984;8.404;2024-02-15T07:45:22;9.80;;;7.00;;
13969;SDS011;7057;49.984;8.404;2024-02-15T07:47:49;8.73;;;6.97;;
13969;SDS011;7057;49.984;8.404;2024-02-15T07:50:18;10.43;;;7.37;;
13969;SDS011;7057;49.984;8.404;2024-02-15T07:52:48;11.70;;;8.00;;
13969;SDS011;7057;49.984;8.404;2024-02-15T07:55:16;9.93;;;7.50;;
13969;SDS011;7057;49.984;8.404;2024-02-15T07:57:44;15.13;;;8.77;;
13969;SDS011;7057;49.984;8.404;2024-02-15T08:00:13;14.90;;;8.93;;
13969;SDS011;7057;49.984;8.404;2024-02-15T08:02:41;13.70;;;9.73;;
13969;SDS011;7057;49.984;8.404;2024-02-15T08:05:10;13.97;;;9.47;;
13969;SDS011;7057;49.984;8.404;2024-02-15T08:07:40;15.63;;;8.60;;
13969;SDS011;7057;49.984;8.404;2024-02-15T08:10:09;12.50;;;8.40;;
13969;SDS011;7057;49.984;8.404;2024-02-15T08:12:39;13.20;;;7.93;;
13969;SDS011;7057;49.984;8.404;2024-02-15T08:15:07;9.90;;;7.10;;
13969;SDS011;7057;49.984;8.404;2024-02-15T08:17:38;11.73;;;7.27;;
13969;SDS011;7057;49.984;8.404;2024-02-15T08:20:07;10.10;;;6.87;;
13969;SDS011;7057;49.984;8.404;2024-02-15T08:22:35;10.63;;;6.90;;
13969;SDS011;7057;49.984;8.404;2024-02-15T08:25:06;9.77;;;6.40;;
13969;SDS011;7057;49.984;8.404;2024-02-15T08:27:36;9.07;;;6.97;;
13969;SDS011;7057;49.984;8.404;2024-02-15T08:30:07;10.27;;;6.30;;
13969;SDS011;7057;49.984;8.404;2024-02-15T08:32:36;9.73;;;6.83;;
13969;SDS011;7057;49.984;8.404;2024-02-15T08:35:05;8.07;;;6.23;;
13969;SDS011;7057;49.984;8.404;2024-02-15T08:37:33;9.30;;;6.70;;
13969;SDS011;7057;49.984;8.404;2024-02-15T08:40:01;7.63;;;6.13;;
13969;SDS011;7057;49.984;8.404;2024-02-15T08:42:31;8.30;;;6.30;;
13969;SDS011;7057;49.984;8.404;2024-02-15T08:44:58;11.07;;;6.83;;
13969;SDS011;7057;49.984;8.404;2024-02-15T08:47:26;11.43;;;6.57;;
13969;SDS011;7057;49.984;8.404;2024-02-15T08:49:53;9.53;;;6.10;;
13969;SDS011;7057;49.984;8.404;2024-02-15T08:52:21;10.13;;;6.53;;
13969;SDS011;7057;49.984;8.404;2024-02-15T08:54:48;9.00;;;6.33;;
13969;SDS011;7057;49.984;8.404;2024-02-15T08:57:16;11.00;;;6.60;;
13969;SDS011;7057;49.984;8.404;2024-02-15T08:59:45;12.23;;;6.97;;
13969;SDS011;7057;49.984;8.404;2024-02-15T09:02:13;9.87;;;6.60;;
13969;SDS011;7057;49.984;8.404;2024-02-15T09:04:41;12.13;;;6.73;;
13969;SDS011;7057;49.984;8.404;2024-02-15T09:07:08;9.63;;;6.37;;
13969;SDS011;7057;49.984;8.404;2024-02-15T09:09:36;13.10;;;7.10;;
13969;SDS011;7057;49.984;8.404;2024-02-15T09:12:03;8.73;;;6.57;;
13969;SDS011;7057;49.984;8.404;2024-02-15T09:14:31;8.07;;;6.53;;
13969;SDS011;7057;49.984;8.404;2024-02-15T09:17:00;7.03;;;6.23;;
13969;SDS011;7057;49.984;8.404;2024-02-15T09:19:32;9.67;;;6.27;;
13969;SDS011;7057;49.984;8.404;2024-02-15T09:22:00;9.70;;;6.53;;
13969;SDS011;7057;49.984;8.404;2024-02-15T09:24:29;8.20;;;5.97;;
13969;SDS011;7057;49.984;8.404;2024-02-15T09:26:58;9.03;;;5.90;;
13969;SDS011;7057;49.984;8.404;2024-02-15T09:29:27;9.60;;;6.77;;
13969;SDS011;7057;49.984;8.404;2024-02-15T09:31:55;9.13;;;6.63;;
13969;SDS011;7057;49.984;8.404;2024-02-15T09:34:24;9.00;;;6.63;;
13969;SDS011;7057;49.984;8.404;2024-02-15T09:36:51;8.83;;;6.70;;
13969;SDS011;7057;49.984;8.404;2024-02-15T09:39:19;10.97;;;6.57;;
13969;SDS011;7057;49.984;8.404;2024-02-15T09:41:48;8.60;;;6.57;;
13969;SDS011;7057;49.984;8.404;2024-02-15T09:44:21;11.73;;;6.10;;
13969;SDS011;7057;49.984;8.404;2024-02-15T09:46:55;7.17;;;5.93;;
13969;SDS011;7057;49.984;8.404;2024-02-15T09:49:24;7.23;;;5.80;;
13969;SDS011;7057;49.984;8.404;2024-02-15T09:51:52;8.37;;;6.07;;
13969;SDS011;7057;49.984;8.404;2024-02-15T09:54:20;11.70;;;6.37;;
13969;SDS011;7057;49.984;8.404;2024-02-15T09:56:48;8.87;;;6.23;;
13969;SDS011;7057;49.984;8.404;2024-02-15T09:59:16;8.83;;;6.10;;
13969;SDS011;7057;49.984;8.404;2024-02-15T10:01:44;7.82;;;5.72;;
13969;SDS011;7057;49.984;8.404;2024-02-15T10:04:13;8.93;;;5.93;;
13969;SDS011;7057;49.984;8.404;2024-02-15T10:06:42;6.93;;;5.37;;
13969;SDS011;7057;49.984;8.404;2024-02-15T10:11:59;10.27;;;5.40;;
13969;SDS011;7057;49.984;8.404;2024-02-15T10:14:28;9.30;;;5.57;;
13969;SDS011;7057;49.984;8.404;2024-02-15T10:16:56;6.20;;;5.00;;
13969;SDS011;7057;49.984;8.404;2024-02-15T10:19:24;6.67;;;4.90;;
13969;SDS011;7057;49.984;8.404;2024-02-15T10:21:54;6.20;;;5.30;;
13969;SDS011;7057;49.984;8.404;2024-02-15T10:24:21;6.65;;;5.25;;
13969;SDS011;7057;49.984;8.404;2024-02-15T10:26:49;8.03;;;5.03;;
13969;SDS011;7057;49.984;8.404;2024-02-15T10:29:18;8.35;;;5.30;;
13969;SDS011;7057;49.984;8.404;2024-02-15T10:31:53;6.80;;;4.80;;
13969;SDS011;7057;49.984;8.404;2024-02-15T10:34:20;7.90;;;4.80;;
13969;SDS011;7057;49.984;8.404;2024-02-15T10:36:48;7.82;;;4.70;;
13969;SDS011;7057;49.984;8.404;2024-02-15T10:39:18;8.20;;;4.88;;
13969;SDS011;7057;49.984;8.404;2024-02-15T10:41:46;6.78;;;4.28;;
13969;SDS011;7057;49.984;8.404;2024-02-15T10:44:15;6.30;;;4.30;;
13969;SDS011;7057;49.984;8.404;2024-02-15T10:46:44;7.32;;;4.60;;
13969;SDS011;7057;49.984;8.404;2024-02-15T10:49:16;6.53;;;4.85;;
13969;SDS011;7057;49.984;8.404;2024-02-15T10:51:44;8.05;;;4.85;;
13969;SDS011;7057;49.984;8.404;2024-02-15T10:54:15;4.80;;;4.38;;
13969;SDS011;7057;49.984;8.404;2024-02-15T10:56:48;6.35;;;4.60;;
13969;SDS011;7057;49.984;8.404;2024-02-15T10:59:18;6.50;;;4.07;;
13969;SDS011;7057;49.984;8.404;2024-02-15T11:01:49;6.57;;;4.47;;
13969;SDS011;7057;49.984;8.404;2024-02-15T11:04:17;10.30;;;4.45;;
13969;SDS011;7057;49.984;8.404;2024-02-15T11:06:47;10.35;;;5.10;;
13969;SDS011;7057;49.984;8.404;2024-02-15T11:09:17;10.20;;;4.40;;
13969;SDS011;7057;49.984;8.404;2024-02-15T11:11:44;6.63;;;4.45;;
13969;SDS011;7057;49.984;8.404;2024-02-15T11:14:26;8.82;;;4.60;;
13969;SDS011;7057;49.984;8.404;2024-02-15T11:16:55;5.30;;;4.03;;
13969;SDS011;7057;49.984;8.404;2024-02-15T11:19:41;7.45;;;4.20;;
13969;SDS011;7057;49.984;8.404;2024-02-15T11:22:11;10.98;;;4.32;;
13969;SDS011;7057;49.984;8.404;2024-02-15T11:24:45;7.80;;;4.10;;
13969;SDS011;7057;49.984;8.404;2024-02-15T11:27:13;8.32;;;4.20;;
13969;SDS011;7057;49.984;8.404;2024-02-15T11:29:53;5.18;;;4.10;;
13969;SDS011;7057;49.984;8.404;2024-02-15T11:32:34;6.03;;;3.92;;
13969;SDS011;7057;49.984;8.404;2024-02-15T11:35:03;6.43;;;3.95;;
13969;SDS011;7057;49.984;8.404;2024-02-15T11:37:55;7.22;;;3.95;;
13969;SDS011;7057;49.984;8.404;2024-02-15T11:40:25;5.50;;;3.75;;
13969;SDS011;7057;49.984;8.404;2024-02-15T11:42:54;5.55;;;3.88;;
13969;SDS011;7057;49.984;8.404;2024-02-15T11:45:26;7.80;;;4.07;;
13969;SDS011;7057;49.984;8.404;2024-02-15T11:47:58;7.85;;;4.00;;
13969;SDS011;7057;49.984;8.404;2024-02-15T11:50:27;6.32;;;3.83;;
13969;SDS011;7057;49.984;8.404;2024-02-15T11:53:01;5.60;;;3.75;;
13969;SDS011;7057;49.984;8.404;2024-02-15T11:55:34;6.95;;;3.42;;
13969;SDS011;7057;49.984;8.404;2024-02-15T11:58:02;7.35;;;3.50;;
13969;SDS011;7057;49.984;8.404;2024-02-15T12:00:43;6.85;;;3.78;;
13969;SDS011;7057;49.984;8.404;2024-02-15T12:03:28;5.55;;;3.88;;
13969;SDS011;7057;49.984;8.404;2024-02-15T12:06:16;6.10;;;3.70;;
13969;SDS011;7057;49.984;8.404;2024-02-15T12:09:02;7.93;;;3.70;;
13969;SDS011;7057;49.984;8.404;2024-02-15T12:11:47;11.63;;;4.20;;
13969;SDS011;7057;49.984;8.404;2024-02-15T12:14:32;3.70;;;3.40;;
13969;SDS011;7057;49.984;8.404;2024-02-15T12:17:18;5.30;;;3.35;;
13969;SDS011;7057;49.984;8.404;2024-02-15T12:20:03;4.18;;;3.20;;
13969;SDS011;7057;49.984;8.404;2024-02-15T12:22:39;7.13;;;3.35;;
13969;SDS011;7057;49.984;8.404;2024-02-15T12:25:07;6.43;;;3.33;;
13969;SDS011;7057;49.984;8.404;2024-02-15T12:27:37;6.15;;;3.50;;
13969;SDS011;7057;49.984;8.404;2024-02-15T12:30:05;5.47;;;3.40;;
13969;SDS011;7057;49.984;8.404;2024-02-15T12:32:35;5.82;;;3.03;;
13969;SDS011;7057;49.984;8.404;2024-02-15T12:35:09;8.70;;;3.50;;
13969;SDS011;7057;49.984;8.404;2024-02-15T12:37:38;3.38;;;2.80;;
13969;SDS011;7057;49.984;8.404;2024-02-15T12:40:12;5.45;;;3.17;;
13969;SDS011;7057;49.984;8.404;2024-02-15T12:42:42;6.00;;;3.00;;
13969;SDS011;7057;49.984;8.404;2024-02-15T12:45:16;4.95;;;3.05;;
13969;SDS011;7057;49.984;8.404;2024-02-15T12:47:47;4.80;;;2.90;;
13969;SDS011;7057;49.984;8.404;2024-02-15T12:50:15;7.25;;;2.85;;
13969;SDS011;7057;49.984;8.404;2024-02-15T12:52:42;5.65;;;2.75;;
13969;SDS011;7057;49.984;8.404;2024-02-15T12:55:13;5.85;;;2.88;;
13969;SDS011;7057;49.984;8.404;2024-02-15T12:57:42;5.70;;;3.00;;
13969;SDS011;7057;49.984;8.404;2024-02-15T13:00:11;5.18;;;2.60;;
13969;SDS011;7057;49.984;8.404;2024-02-15T13:02:44;5.88;;;2.90;;
13969;SDS011;7057;49.984;8.404;2024-02-15T13:05:15;4.82;;;2.47;;
13969;SDS011;7057;49.984;8.404;2024-02-15T13:07:45;4.95;;;2.70;;
13969;SDS011;7057;49.984;8.404;2024-02-15T13:10:13;4.15;;;2.60;;
13969;SDS011;7057;49.984;8.404;2024-02-15T13:12:41;7.18;;;2.60;;
13969;SDS011;7057;49.984;8.404;2024-02-15T13:15:09;6.80;;;3.20;;
13969;SDS011;7057;49.984;8.404;2024-02-15T13:17:40;4.53;;;2.40;;
13969;SDS011;7057;49.984;8.404;2024-02-15T13:20:08;6.15;;;3.08;;
13969;SDS011;7057;49.984;8.404;2024-02-15T13:22:40;7.15;;;2.97;;
13969;SDS011;7057;49.984;8.404;2024-02-15T13:25:09;5.68;;;2.60;;
13969;SDS011;7057;49.984;8.404;2024-02-15T13:27:36;4.32;;;2.75;;
13969;SDS011;7057;49.984;8.404;2024-02-15T13:30:05;5.55;;;2.80;;
13969;SDS011;7057;49.984;8.404;2024-02-15T13:32:34;5.38;;;2.47;;
13969;SDS011;7057;49.984;8.404;2024-02-15T13:35:02;4.65;;;2.80;;
13969;SDS011;7057;49.984;8.404;2024-02-15T13:37:41;4.45;;;2.50;;
13969;SDS011;7057;49.984;8.404;2024-02-15T13:40:12;6.53;;;3.10;;
13969;SDS011;7057;49.984;8.404;2024-02-15T13:42:42;5.03;;;2.53;;
13969;SDS011;7057;49.984;8.404;2024-02-15T13:45:14;5.68;;;2.85;;
13969;SDS011;7057;49.984;8.404;2024-02-15T13:47:43;4.25;;;2.63;;
13969;SDS011;7057;49.984;8.404;2024-02-15T13:50:12;7.20;;;2.83;;
13969;SDS011;7057;49.984;8.404;2024-02-15T13:52:42;5.10;;;2.80;;
13969;SDS011;7057;49.984;8.404;2024-02-15T13:55:10;5.60;;;3.05;;
13969;SDS011;7057;49.984;8.404;2024-02-15T13:57:38;6.13;;;2.70;;
13969;SDS011;7057;49.984;8.404;2024-02-15T14:00:07;5.47;;;2.72;;
13969;SDS011;7057;49.984;8.404;2024-02-15T14:02:39;5.40;;;2.97;;
13969;SDS011;7057;49.984;8.404;2024-02-15T14:05:07;6.65;;;2.97;;
13969;SDS011;7057;49.984;8.404;2024-02-15T14:07:34;4.85;;;2.78;;
13969;SDS011;7057;49.984;8.404;2024-02-15T14:10:04;7.25;;;2.65;;
13969;SDS011;7057;49.984;8.404;2024-02-15T14:12:32;4.57;;;2.50;;
13969;SDS011;7057;49.984;8.404;2024-02-15T14:15:00;5.25;;;2.78;;
13969;SDS011;7057;49.984;8.404;2024-02-15T14:17:28;6.22;;;2.92;;
13969;SDS011;7057;49.984;8.404;2024-02-15T14:19:55;8.60;;;2.80;;
13969;SDS011;7057;49.984;8.404;2024-02-15T14:22:23;4.90;;;2.90;;
13969;SDS011;7057;49.984;8.404;2024-02-15T14:24:53;5.10;;;2.55;;
13969;SDS011;7057;49.984;8.404;2024-02-15T14:27:23;5.28;;;3.10;;
13969;SDS011;7057;49.984;8.404;2024-02-15T14:29:50;5.85;;;3.45;;
13969;SDS011;7057;49.984;8.404;2024-02-15T14:32:35;4.63;;;2.40;;
13969;SDS011;7057;49.984;8.404;2024-02-15T14:35:20;4.65;;;2.47;;
13969;SDS011;7057;49.984;8.404;2024-02-15T14:37:47;6.25;;;2.75;;
13969;SDS011;7057;49.984;8.404;2024-02-15T14:40:15;5.90;;;2.97;;
13969;SDS011;7057;49.984;8.404;2024-02-15T14:42:44;6.25;;;2.70;;
13969;SDS011;7057;49.984;8.404;2024-02-15T14:45:11;4.63;;;2.45;;
13969;SDS011;7057;49.984;8.404;2024-02-15T14:47:39;4.28;;;2.40;;
13969;SDS011;7057;49.984;8.404;2024-02-15T14:50:07;7.72;;;3.63;;
13969;SDS011;7057;49.984;8.404;2024-02-15T14:52:38;4.72;;;3.22;;
13969;SDS011;7057;49.984;8.404;2024-02-15T14:55:06;5.10;;;2.80;;
13969;SDS011;7057;49.984;8.404;2024-02-15T14:57:34;5.00;;;2.50;;
13969;SDS011;7057;49.984;8.404;2024-02-15T15:00:05;4.00;;;2.22;;
13969;SDS011;7057;49.984;8.404;2024-02-15T15:02:36;6.43;;;2.85;;
13969;SDS011;7057;49.984;8.404;2024-02-15T15:05:04;6.25;;;2.80;;
13969;SDS011;7057;49.984;8.404;2024-02-15T15:07:49;8.50;;;3.10;;